sensor_id;sensor_type;location;lat;lon;timestamp;temperature;humidity
8707;DHT22;4390;49.302;9.306;2022-07-03T00:01:57;20.10;78.10
8707;DHT22;4390;49.302;9.306;2022-07-03T00:04:24;20.10;78.20
8707;DHT22;4390;49.302;9.306;2022-07-03T00:06:53;20.10;78.30
8707;DHT22;4390;49.302;9.306;2022-07-03T00:09:21;20.00;78.40
8707;DHT22;4390;49.302;9.306;2022-07-03T00:11:48;20.00;78.60
8707;DHT22;4390;49.302;9.306;2022-07-03T00:14:15;20.00;78.70
8707;DHT22;4390;49.302;9.306;2022-07-03T00:16:42;20.00;78.80
8707;DHT22;4390;49.302;9.306;2022-07-03T00:19:08;19.90;78.70
8707;DHT22;4390;49.302;9.306;2022-07-03T00:21:47;19.90;78.80
8707;DHT22;4390;49.302;9.306;2022-07-03T00:24:27;19.80;78.80
8707;DHT22;4390;49.302;9.306;2022-07-03T00:26:55;19.80;78.90
8707;DHT22;4390;49.302;9.306;2022-07-03T00:29:28;19.80;79.00
8707;DHT22;4390;49.302;9.306;2022-07-03T00:31:56;19.80;78.90
8707;DHT22;4390;49.302;9.306;2022-07-03T00:34:24;19.70;79.00
8707;DHT22;4390;49.302;9.306;2022-07-03T00:36:52;19.70;78.90
8707;DHT22;4390;49.302;9.306;2022-07-03T00:39:19;19.70;79.10
8707;DHT22;4390;49.302;9.306;2022-07-03T00:41:46;19.60;79.20
8707;DHT22;4390;49.302;9.306;2022-07-03T00:44:25;19.60;79.20
8707;DHT22;4390;49.302;9.306;2022-07-03T00:46:55;19.60;79.20
8707;DHT22;4390;49.302;9.306;2022-07-03T00:49:23;19.50;79.30
8707;DHT22;4390;49.302;9.306;2022-07-03T00:51:52;19.50;79.20
8707;DHT22;4390;49.302;9.306;2022-07-03T00:54:22;19.50;79.30
8707;DHT22;4390;49.302;9.306;2022-07-03T00:56:54;19.40;79.40
8707;DHT22;4390;49.302;9.306;2022-07-03T00:59:21;19.40;79.40
8707;DHT22;4390;49.302;9.306;2022-07-03T01:01:58;19.30;79.50
8707;DHT22;4390;49.302;9.306;2022-07-03T01:04:45;19.30;79.50
8707;DHT22;4390;49.302;9.306;2022-07-03T01:07:25;19.30;79.70
8707;DHT22;4390;49.302;9.306;2022-07-03T01:10:03;19.20;79.80
8707;DHT22;4390;49.302;9.306;2022-07-03T01:12:51;19.20;79.80
8707;DHT22;4390;49.302;9.306;2022-07-03T01:15:35;19.20;79.90
8707;DHT22;4390;49.302;9.306;2022-07-03T01:18:34;19.10;79.90
8707;DHT22;4390;49.302;9.306;2022-07-03T01:21:08;19.00;80.00
8707;DHT22;4390;49.302;9.306;2022-07-03T01:26:18;18.90;80.10
8707;DHT22;4390;49.302;9.306;2022-07-03T01:28:46;18.90;80.10
8707;DHT22;4390;49.302;9.306;2022-07-03T01:31:19;18.90;80.20
8707;DHT22;4390;49.302;9.306;2022-07-03T01:33:50;18.80;80.20
8707;DHT22;4390;49.302;9.306;2022-07-03T01:36:18;18.70;80.50
8707;DHT22;4390;49.302;9.306;2022-07-03T01:38:48;18.60;80.60
8707;DHT22;4390;49.302;9.306;2022-07-03T01:41:16;18.60;80.60
8707;DHT22;4390;49.302;9.306;2022-07-03T01:43:55;18.60;80.70
8707;DHT22;4390;49.302;9.306;2022-07-03T01:46:27;18.60;80.60
8707;DHT22;4390;49.302;9.306;2022-07-03T01:48:55;18.60;80.70
8707;DHT22;4390;49.302;9.306;2022-07-03T01:51:23;18.70;80.70
8707;DHT22;4390;49.302;9.306;2022-07-03T01:53:52;18.60;80.70
8707;DHT22;4390;49.302;9.306;2022-07-03T01:56:21;18.60;80.70
8707;DHT22;4390;49.302;9.306;2022-07-03T01:58:48;18.60;80.70
8707;DHT22;4390;49.302;9.306;2022-07-03T02:01:22;18.60;80.80
8707;DHT22;4390;49.302;9.306;2022-07-03T02:04:06;18.50;80.70
8707;DHT22;4390;49.302;9.306;2022-07-03T02:06:51;18.50;81.00
8707;DHT22;4390;49.302;9.306;2022-07-03T02:09:24;18.50;80.90
8707;DHT22;4390;49.302;9.306;2022-07-03T02:11:52;18.50;80.90
8707;DHT22;4390;49.302;9.306;2022-07-03T02:14:30;18.50;80.90
8707;DHT22;4390;49.302;9.306;2022-07-03T02:20:02;18.40;81.00
8707;DHT22;4390;49.302;9.306;2022-07-03T02:22:41;18.40;81.10
8707;DHT22;4390;49.302;9.306;2022-07-03T02:25:16;18.40;81.10
8707;DHT22;4390;49.302;9.306;2022-07-03T02:27:53;18.30;81.20
8707;DHT22;4390;49.302;9.306;2022-07-03T02:30:23;18.30;81.10
8707;DHT22;4390;49.302;9.306;2022-07-03T02:32:52;18.30;81.10
8707;DHT22;4390;49.302;9.306;2022-07-03T02:35:30;18.30;81.00
8707;DHT22;4390;49.302;9.306;2022-07-03T02:45:55;18.20;81.20
8707;DHT22;4390;49.302;9.306;2022-07-03T02:48:36;18.20;81.20
8707;DHT22;4390;49.302;9.306;2022-07-03T02:51:16;18.20;81.20
8707;DHT22;4390;49.302;9.306;2022-07-03T02:53:50;18.10;81.20
8707;DHT22;4390;49.302;9.306;2022-07-03T02:56:31;18.10;81.20
8707;DHT22;4390;49.302;9.306;2022-07-03T02:59:22;18.10;81.30
8707;DHT22;4390;49.302;9.306;2022-07-03T03:02:15;18.10;81.30
8707;DHT22;4390;49.302;9.306;2022-07-03T03:04:55;18.10;81.40
8707;DHT22;4390;49.302;9.306;2022-07-03T03:07:33;18.10;81.20
8707;DHT22;4390;49.302;9.306;2022-07-03T03:10:01;18.10;81.10
8707;DHT22;4390;49.302;9.306;2022-07-03T03:12:36;18.10;81.10
8707;DHT22;4390;49.302;9.306;2022-07-03T03:15:04;18.00;81.20
8707;DHT22;4390;49.302;9.306;2022-07-03T03:17:41;18.00;81.30
8707;DHT22;4390;49.302;9.306;2022-07-03T03:20:12;17.90;81.40
8707;DHT22;4390;49.302;9.306;2022-07-03T03:23:09;17.90;81.50
8707;DHT22;4390;49.302;9.306;2022-07-03T03:25:37;17.80;81.60
8707;DHT22;4390;49.302;9.306;2022-07-03T03:28:04;17.80;81.70
8707;DHT22;4390;49.302;9.306;2022-07-03T03:30:30;17.80;81.80
8707;DHT22;4390;49.302;9.306;2022-07-03T03:32:57;17.80;81.80
8707;DHT22;4390;49.302;9.306;2022-07-03T03:35:24;17.80;81.70
8707;DHT22;4390;49.302;9.306;2022-07-03T03:37:51;17.80;81.60
8707;DHT22;4390;49.302;9.306;2022-07-03T03:40:18;17.80;81.70
8707;DHT22;4390;49.302;9.306;2022-07-03T03:42:44;17.80;81.70
8707;DHT22;4390;49.302;9.306;2022-07-03T03:45:11;17.80;81.70
8707;DHT22;4390;49.302;9.306;2022-07-03T03:47:39;17.70;81.70
8707;DHT22;4390;49.302;9.306;2022-07-03T03:50:06;17.80;81.70
8707;DHT22;4390;49.302;9.306;2022-07-03T03:52:32;17.80;81.70
8707;DHT22;4390;49.302;9.306;2022-07-03T03:55:00;17.80;81.70
8707;DHT22;4390;49.302;9.306;2022-07-03T03:57:26;17.80;81.80
8707;DHT22;4390;49.302;9.306;2022-07-03T03:59:54;17.80;81.60
8707;DHT22;4390;49.302;9.306;2022-07-03T04:02:22;17.80;81.60
8707;DHT22;4390;49.302;9.306;2022-07-03T04:04:48;17.80;81.70
8707;DHT22;4390;49.302;9.306;2022-07-03T04:07:15;17.80;81.70
8707;DHT22;4390;49.302;9.306;2022-07-03T04:09:42;17.80;81.80
8707;DHT22;4390;49.302;9.306;2022-07-03T04:12:10;17.80;81.80
8707;DHT22;4390;49.302;9.306;2022-07-03T04:14:37;17.80;81.70
8707;DHT22;4390;49.302;9.306;2022-07-03T04:17:04;17.80;81.70
8707;DHT22;4390;49.302;9.306;2022-07-03T04:19:31;17.80;81.70
8707;DHT22;4390;49.302;9.306;2022-07-03T04:21:58;17.80;81.70
8707;DHT22;4390;49.302;9.306;2022-07-03T04:24:25;17.80;81.80
8707;DHT22;4390;49.302;9.306;2022-07-03T04:26:52;17.80;81.70
8707;DHT22;4390;49.302;9.306;2022-07-03T04:29:19;17.80;81.80
8707;DHT22;4390;49.302;9.306;2022-07-03T04:31:46;17.70;82.00
8707;DHT22;4390;49.302;9.306;2022-07-03T04:34:12;17.70;82.10
8707;DHT22;4390;49.302;9.306;2022-07-03T04:36:39;17.60;82.30
8707;DHT22;4390;49.302;9.306;2022-07-03T04:39:06;17.60;82.40
8707;DHT22;4390;49.302;9.306;2022-07-03T04:41:33;17.60;82.50
8707;DHT22;4390;49.302;9.306;2022-07-03T04:43:59;17.60;82.50
8707;DHT22;4390;49.302;9.306;2022-07-03T04:46:26;17.60;82.60
8707;DHT22;4390;49.302;9.306;2022-07-03T04:48:53;17.70;82.70
8707;DHT22;4390;49.302;9.306;2022-07-03T04:51:20;17.70;82.80
8707;DHT22;4390;49.302;9.306;2022-07-03T04:53:47;17.80;82.80
8707;DHT22;4390;49.302;9.306;2022-07-03T04:56:13;17.80;82.80
8707;DHT22;4390;49.302;9.306;2022-07-03T04:58:40;17.80;82.80
8707;DHT22;4390;49.302;9.306;2022-07-03T05:01:07;17.90;82.90
8707;DHT22;4390;49.302;9.306;2022-07-03T05:03:34;17.90;83.10
8707;DHT22;4390;49.302;9.306;2022-07-03T05:06:00;18.00;83.10
8707;DHT22;4390;49.302;9.306;2022-07-03T05:08:28;18.10;83.00
8707;DHT22;4390;49.302;9.306;2022-07-03T05:10:54;18.10;83.00
8707;DHT22;4390;49.302;9.306;2022-07-03T05:13:21;18.20;82.90
8707;DHT22;4390;49.302;9.306;2022-07-03T05:15:48;18.20;82.80
8707;DHT22;4390;49.302;9.306;2022-07-03T05:18:14;18.30;82.80
8707;DHT22;4390;49.302;9.306;2022-07-03T05:20:47;18.30;82.80
8707;DHT22;4390;49.302;9.306;2022-07-03T05:23:14;18.30;82.90
8707;DHT22;4390;49.302;9.306;2022-07-03T05:25:41;18.30;83.00
8707;DHT22;4390;49.302;9.306;2022-07-03T05:28:07;18.40;83.00
8707;DHT22;4390;49.302;9.306;2022-07-03T05:30:34;18.50;83.00
8707;DHT22;4390;49.302;9.306;2022-07-03T05:33:01;18.50;82.90
8707;DHT22;4390;49.302;9.306;2022-07-03T05:35:28;18.60;82.90
8707;DHT22;4390;49.302;9.306;2022-07-03T05:37:54;18.60;82.90
8707;DHT22;4390;49.302;9.306;2022-07-03T05:40:21;18.70;82.80
8707;DHT22;4390;49.302;9.306;2022-07-03T05:42:48;18.70;82.90
8707;DHT22;4390;49.302;9.306;2022-07-03T05:45:15;18.80;83.30
8707;DHT22;4390;49.302;9.306;2022-07-03T05:47:41;18.90;83.20
8707;DHT22;4390;49.302;9.306;2022-07-03T05:50:09;18.90;83.10
8707;DHT22;4390;49.302;9.306;2022-07-03T05:52:35;19.10;83.10
8707;DHT22;4390;49.302;9.306;2022-07-03T05:55:03;19.20;82.90
8707;DHT22;4390;49.302;9.306;2022-07-03T05:57:30;19.20;83.00
8707;DHT22;4390;49.302;9.306;2022-07-03T06:00:00;19.30;83.00
8707;DHT22;4390;49.302;9.306;2022-07-03T06:02:27;19.40;83.00
8707;DHT22;4390;49.302;9.306;2022-07-03T06:04:54;19.50;82.80
8707;DHT22;4390;49.302;9.306;2022-07-03T06:07:21;19.50;83.00
8707;DHT22;4390;49.302;9.306;2022-07-03T06:09:48;19.50;83.10
8707;DHT22;4390;49.302;9.306;2022-07-03T06:12:15;19.60;83.00
8707;DHT22;4390;49.302;9.306;2022-07-03T06:14:42;19.70;82.90
8707;DHT22;4390;49.302;9.306;2022-07-03T06:17:08;19.70;83.20
8707;DHT22;4390;49.302;9.306;2022-07-03T06:19:35;19.80;83.00
8707;DHT22;4390;49.302;9.306;2022-07-03T06:22:02;19.90;83.10
8707;DHT22;4390;49.302;9.306;2022-07-03T06:24:29;20.10;82.90
8707;DHT22;4390;49.302;9.306;2022-07-03T06:26:56;20.20;82.10
8707;DHT22;4390;49.302;9.306;2022-07-03T06:29:22;20.30;81.40
8707;DHT22;4390;49.302;9.306;2022-07-03T06:31:49;20.40;81.20
8707;DHT22;4390;49.302;9.306;2022-07-03T06:34:16;20.50;80.50
8707;DHT22;4390;49.302;9.306;2022-07-03T06:36:43;20.50;79.70
8707;DHT22;4390;49.302;9.306;2022-07-03T06:39:09;20.70;79.60
8707;DHT22;4390;49.302;9.306;2022-07-03T06:41:36;20.80;79.70
8707;DHT22;4390;49.302;9.306;2022-07-03T06:44:03;20.90;79.70
8707;DHT22;4390;49.302;9.306;2022-07-03T06:46:30;21.00;79.60
8707;DHT22;4390;49.302;9.306;2022-07-03T06:48:57;21.10;79.60
8707;DHT22;4390;49.302;9.306;2022-07-03T06:51:23;21.20;79.60
8707;DHT22;4390;49.302;9.306;2022-07-03T06:53:50;21.30;79.70
8707;DHT22;4390;49.302;9.306;2022-07-03T06:56:17;21.40;79.60
8707;DHT22;4390;49.302;9.306;2022-07-03T06:58:44;21.50;79.50
8707;DHT22;4390;49.302;9.306;2022-07-03T07:01:10;21.60;79.40
8707;DHT22;4390;49.302;9.306;2022-07-03T07:03:37;21.70;79.50
8707;DHT22;4390;49.302;9.306;2022-07-03T07:06:04;21.80;79.30
8707;DHT22;4390;49.302;9.306;2022-07-03T07:08:31;21.90;78.80
8707;DHT22;4390;49.302;9.306;2022-07-03T07:10:58;21.90;78.60
8707;DHT22;4390;49.302;9.306;2022-07-03T07:13:24;22.00;78.40
8707;DHT22;4390;49.302;9.306;2022-07-03T07:15:51;22.10;78.00
8707;DHT22;4390;49.302;9.306;2022-07-03T07:18:18;22.30;77.70
8707;DHT22;4390;49.302;9.306;2022-07-03T07:20:45;22.40;77.50
8707;DHT22;4390;49.302;9.306;2022-07-03T07:23:12;22.50;77.50
8707;DHT22;4390;49.302;9.306;2022-07-03T07:25:38;22.60;77.30
8707;DHT22;4390;49.302;9.306;2022-07-03T07:28:10;22.70;77.00
8707;DHT22;4390;49.302;9.306;2022-07-03T07:30:37;22.80;76.80
8707;DHT22;4390;49.302;9.306;2022-07-03T07:33:07;22.90;76.60
8707;DHT22;4390;49.302;9.306;2022-07-03T07:35:34;23.00;76.10
8707;DHT22;4390;49.302;9.306;2022-07-03T07:38:01;23.10;76.00
8707;DHT22;4390;49.302;9.306;2022-07-03T07:40:34;23.10;76.00
8707;DHT22;4390;49.302;9.306;2022-07-03T07:43:01;23.20;76.00
8707;DHT22;4390;49.302;9.306;2022-07-03T07:45:27;23.30;75.60
8707;DHT22;4390;49.302;9.306;2022-07-03T07:47:54;23.40;75.40
8707;DHT22;4390;49.302;9.306;2022-07-03T07:50:21;23.50;75.60
8707;DHT22;4390;49.302;9.306;2022-07-03T07:52:48;23.60;75.00
8707;DHT22;4390;49.302;9.306;2022-07-03T07:55:15;23.60;75.30
8707;DHT22;4390;49.302;9.306;2022-07-03T07:57:42;23.70;75.20
8707;DHT22;4390;49.302;9.306;2022-07-03T08:00:17;23.70;75.00
8707;DHT22;4390;49.302;9.306;2022-07-03T08:02:45;23.80;74.80
8707;DHT22;4390;49.302;9.306;2022-07-03T08:05:31;24.00;74.70
8707;DHT22;4390;49.302;9.306;2022-07-03T08:10:55;24.10;74.20
8707;DHT22;4390;49.302;9.306;2022-07-03T08:13:21;24.30;74.00
8707;DHT22;4390;49.302;9.306;2022-07-03T08:15:47;24.40;74.10
8707;DHT22;4390;49.302;9.306;2022-07-03T08:18:14;24.30;74.20
8707;DHT22;4390;49.302;9.306;2022-07-03T08:20:41;24.20;74.40
8707;DHT22;4390;49.302;9.306;2022-07-03T08:23:08;24.30;74.10
8707;DHT22;4390;49.302;9.306;2022-07-03T08:25:35;24.30;73.80
8707;DHT22;4390;49.302;9.306;2022-07-03T08:28:02;24.40;74.00
8707;DHT22;4390;49.302;9.306;2022-07-03T08:30:29;24.50;73.70
8707;DHT22;4390;49.302;9.306;2022-07-03T08:32:57;24.70;73.60
8707;DHT22;4390;49.302;9.306;2022-07-03T08:35:25;24.80;73.30
8707;DHT22;4390;49.302;9.306;2022-07-03T08:37:52;24.90;73.30
8707;DHT22;4390;49.302;9.306;2022-07-03T08:40:19;25.00;73.00
8707;DHT22;4390;49.302;9.306;2022-07-03T08:42:57;25.10;72.90
8707;DHT22;4390;49.302;9.306;2022-07-03T08:45:25;25.20;72.90
8707;DHT22;4390;49.302;9.306;2022-07-03T08:47:54;25.20;72.50
8707;DHT22;4390;49.302;9.306;2022-07-03T08:50:21;25.40;72.20
8707;DHT22;4390;49.302;9.306;2022-07-03T08:52:49;25.50;71.20
8707;DHT22;4390;49.302;9.306;2022-07-03T08:55:17;25.60;70.60
8707;DHT22;4390;49.302;9.306;2022-07-03T08:57:46;25.70;70.10
8707;DHT22;4390;49.302;9.306;2022-07-03T09:00:15;25.70;70.20
8707;DHT22;4390;49.302;9.306;2022-07-03T09:02:47;25.80;70.70
8707;DHT22;4390;49.302;9.306;2022-07-03T09:05:16;25.90;70.40
8707;DHT22;4390;49.302;9.306;2022-07-03T09:07:45;25.90;69.80
8707;DHT22;4390;49.302;9.306;2022-07-03T09:10:15;25.90;69.70
8707;DHT22;4390;49.302;9.306;2022-07-03T09:12:47;26.10;69.80
8707;DHT22;4390;49.302;9.306;2022-07-03T09:15:14;26.20;69.60
8707;DHT22;4390;49.302;9.306;2022-07-03T09:18:05;26.40;69.40
8707;DHT22;4390;49.302;9.306;2022-07-03T09:20:38;26.50;69.20
8707;DHT22;4390;49.302;9.306;2022-07-03T09:23:18;26.50;69.00
8707;DHT22;4390;49.302;9.306;2022-07-03T09:25:53;26.40;69.00
8707;DHT22;4390;49.302;9.306;2022-07-03T09:28:22;26.50;69.30
8707;DHT22;4390;49.302;9.306;2022-07-03T09:31:01;26.60;68.60
8707;DHT22;4390;49.302;9.306;2022-07-03T09:33:28;26.80;69.00
8707;DHT22;4390;49.302;9.306;2022-07-03T09:35:55;26.90;68.30
8707;DHT22;4390;49.302;9.306;2022-07-03T09:38:23;27.00;68.30
8707;DHT22;4390;49.302;9.306;2022-07-03T09:43:30;27.10;67.60
8707;DHT22;4390;49.302;9.306;2022-07-03T09:46:01;27.10;68.20
8707;DHT22;4390;49.302;9.306;2022-07-03T09:48:36;27.10;68.10
8707;DHT22;4390;49.302;9.306;2022-07-03T09:51:22;27.20;67.30
8707;DHT22;4390;49.302;9.306;2022-07-03T09:54:01;27.40;67.30
8707;DHT22;4390;49.302;9.306;2022-07-03T09:56:35;27.40;66.00
8707;DHT22;4390;49.302;9.306;2022-07-03T10:01:37;27.70;65.50
8707;DHT22;4390;49.302;9.306;2022-07-03T10:04:17;27.80;65.30
8707;DHT22;4390;49.302;9.306;2022-07-03T10:06:53;27.90;65.00
8707;DHT22;4390;49.302;9.306;2022-07-03T10:09:29;28.10;64.70
8707;DHT22;4390;49.302;9.306;2022-07-03T10:12:01;28.10;64.20
8707;DHT22;4390;49.302;9.306;2022-07-03T10:14:31;28.10;65.10
8707;DHT22;4390;49.302;9.306;2022-07-03T10:16:59;28.20;64.00
8707;DHT22;4390;49.302;9.306;2022-07-03T10:19:30;28.30;64.60
8707;DHT22;4390;49.302;9.306;2022-07-03T10:22:09;28.50;64.10
8707;DHT22;4390;49.302;9.306;2022-07-03T10:24:42;28.60;63.60
8707;DHT22;4390;49.302;9.306;2022-07-03T10:27:11;28.70;63.80
8707;DHT22;4390;49.302;9.306;2022-07-03T10:29:39;28.70;61.80
8707;DHT22;4390;49.302;9.306;2022-07-03T10:32:07;28.70;62.00
8707;DHT22;4390;49.302;9.306;2022-07-03T10:34:35;28.70;61.90
8707;DHT22;4390;49.302;9.306;2022-07-03T10:37:03;28.80;61.50
8707;DHT22;4390;49.302;9.306;2022-07-03T10:39:57;28.80;61.50
8707;DHT22;4390;49.302;9.306;2022-07-03T10:42:52;28.90;61.20
8707;DHT22;4390;49.302;9.306;2022-07-03T10:51:30;29.10;61.70
8707;DHT22;4390;49.302;9.306;2022-07-03T11:13:14;29.70;59.90
8707;DHT22;4390;49.302;9.306;2022-07-03T11:15:50;29.80;60.70
8707;DHT22;4390;49.302;9.306;2022-07-03T11:25:57;30.60;60.00
8707;DHT22;4390;49.302;9.306;2022-07-03T11:36:28;31.10;58.80
8707;DHT22;4390;49.302;9.306;2022-07-03T11:41:22;31.10;59.00
8707;DHT22;4390;49.302;9.306;2022-07-03T11:46:28;30.90;57.80
8707;DHT22;4390;49.302;9.306;2022-07-03T11:49:09;31.10;58.50
8707;DHT22;4390;49.302;9.306;2022-07-03T11:51:39;31.00;57.80
8707;DHT22;4390;49.302;9.306;2022-07-03T11:54:06;31.00;58.10
8707;DHT22;4390;49.302;9.306;2022-07-03T11:56:34;31.10;58.00
8707;DHT22;4390;49.302;9.306;2022-07-03T11:59:04;31.20;58.20
8707;DHT22;4390;49.302;9.306;2022-07-03T12:01:38;31.00;57.60
8707;DHT22;4390;49.302;9.306;2022-07-03T12:04:17;30.90;58.40
8707;DHT22;4390;49.302;9.306;2022-07-03T12:06:58;31.10;58.30
8707;DHT22;4390;49.302;9.306;2022-07-03T12:09:27;31.40;58.30
8707;DHT22;4390;49.302;9.306;2022-07-03T12:17:00;31.80;58.50
8707;DHT22;4390;49.302;9.306;2022-07-03T12:19:27;31.90;57.80
8707;DHT22;4390;49.302;9.306;2022-07-03T12:21:54;31.90;57.10
8707;DHT22;4390;49.302;9.306;2022-07-03T12:24:21;31.80;56.70
8707;DHT22;4390;49.302;9.306;2022-07-03T12:26:48;31.90;56.80
8707;DHT22;4390;49.302;9.306;2022-07-03T12:29:16;31.90;56.30
8707;DHT22;4390;49.302;9.306;2022-07-03T12:31:47;31.90;56.80
8707;DHT22;4390;49.302;9.306;2022-07-03T12:34:16;31.90;57.40
8707;DHT22;4390;49.302;9.306;2022-07-03T12:36:59;31.70;57.10
8707;DHT22;4390;49.302;9.306;2022-07-03T12:42:22;32.00;58.00
8707;DHT22;4390;49.302;9.306;2022-07-03T12:44:59;32.00;56.70
8707;DHT22;4390;49.302;9.306;2022-07-03T12:47:28;31.90;56.30
8707;DHT22;4390;49.302;9.306;2022-07-03T12:50:03;32.00;57.30
8707;DHT22;4390;49.302;9.306;2022-07-03T12:52:31;32.10;57.40
8707;DHT22;4390;49.302;9.306;2022-07-03T12:55:00;32.30;56.40
8707;DHT22;4390;49.302;9.306;2022-07-03T12:57:28;32.40;55.80
8707;DHT22;4390;49.302;9.306;2022-07-03T13:00:14;32.50;56.60
8707;DHT22;4390;49.302;9.306;2022-07-03T13:02:47;32.50;55.60
8707;DHT22;4390;49.302;9.306;2022-07-03T13:07:45;32.40;55.70
8707;DHT22;4390;49.302;9.306;2022-07-03T13:10:14;32.20;55.60
8707;DHT22;4390;49.302;9.306;2022-07-03T13:12:46;32.30;56.20
8707;DHT22;4390;49.302;9.306;2022-07-03T13:15:14;32.40;56.00
8707;DHT22;4390;49.302;9.306;2022-07-03T13:17:57;32.60;56.30
8707;DHT22;4390;49.302;9.306;2022-07-03T13:20:25;32.70;56.50
8707;DHT22;4390;49.302;9.306;2022-07-03T13:22:55;32.60;55.00
8707;DHT22;4390;49.302;9.306;2022-07-03T13:25:22;32.40;55.50
8707;DHT22;4390;49.302;9.306;2022-07-03T13:27:49;32.30;55.80
8707;DHT22;4390;49.302;9.306;2022-07-03T13:30:18;32.30;56.20
8707;DHT22;4390;49.302;9.306;2022-07-03T13:32:46;32.40;55.90
8707;DHT22;4390;49.302;9.306;2022-07-03T13:35:13;32.50;55.40
8707;DHT22;4390;49.302;9.306;2022-07-03T13:37:40;32.60;55.00
8707;DHT22;4390;49.302;9.306;2022-07-03T13:40:06;32.70;54.30
8707;DHT22;4390;49.302;9.306;2022-07-03T13:42:34;32.80;54.30
8707;DHT22;4390;49.302;9.306;2022-07-03T13:45:01;32.80;54.30
8707;DHT22;4390;49.302;9.306;2022-07-03T13:47:28;32.70;55.10
8707;DHT22;4390;49.302;9.306;2022-07-03T13:49:55;32.60;55.30
8707;DHT22;4390;49.302;9.306;2022-07-03T13:52:22;32.60;55.70
8707;DHT22;4390;49.302;9.306;2022-07-03T13:54:48;32.50;55.40
8707;DHT22;4390;49.302;9.306;2022-07-03T13:57:15;32.70;55.70
8707;DHT22;4390;49.302;9.306;2022-07-03T13:59:42;32.70;55.70
8707;DHT22;4390;49.302;9.306;2022-07-03T14:02:09;32.90;56.10
8707;DHT22;4390;49.302;9.306;2022-07-03T14:04:36;32.90;56.00
8707;DHT22;4390;49.302;9.306;2022-07-03T14:07:03;33.00;55.40
8707;DHT22;4390;49.302;9.306;2022-07-03T14:09:30;32.80;56.10
8707;DHT22;4390;49.302;9.306;2022-07-03T14:11:57;32.90;55.40
8707;DHT22;4390;49.302;9.306;2022-07-03T14:14:24;32.90;55.40
8707;DHT22;4390;49.302;9.306;2022-07-03T14:16:51;33.00;55.40
8707;DHT22;4390;49.302;9.306;2022-07-03T14:19:18;32.90;55.30
8707;DHT22;4390;49.302;9.306;2022-07-03T14:21:45;32.90;55.50
8707;DHT22;4390;49.302;9.306;2022-07-03T14:24:12;32.90;55.50
8707;DHT22;4390;49.302;9.306;2022-07-03T14:26:39;32.80;54.50
8707;DHT22;4390;49.302;9.306;2022-07-03T14:29:25;32.80;55.40
8707;DHT22;4390;49.302;9.306;2022-07-03T14:32:11;32.70;54.70
8707;DHT22;4390;49.302;9.306;2022-07-03T14:34:57;32.70;55.60
8707;DHT22;4390;49.302;9.306;2022-07-03T14:37:27;32.90;55.70
8707;DHT22;4390;49.302;9.306;2022-07-03T14:40:00;33.00;55.30
8707;DHT22;4390;49.302;9.306;2022-07-03T14:42:27;33.00;55.40
8707;DHT22;4390;49.302;9.306;2022-07-03T14:44:54;33.00;55.00
8707;DHT22;4390;49.302;9.306;2022-07-03T14:47:21;33.00;54.90
8707;DHT22;4390;49.302;9.306;2022-07-03T14:49:47;33.00;55.50
8707;DHT22;4390;49.302;9.306;2022-07-03T14:52:14;33.00;55.40
8707;DHT22;4390;49.302;9.306;2022-07-03T14:54:41;33.00;55.90
8707;DHT22;4390;49.302;9.306;2022-07-03T14:57:18;32.80;55.10
8707;DHT22;4390;49.302;9.306;2022-07-03T15:00:13;32.70;55.60
8707;DHT22;4390;49.302;9.306;2022-07-03T15:05:14;32.60;55.00
8707;DHT22;4390;49.302;9.306;2022-07-03T15:10:35;32.50;55.00
8707;DHT22;4390;49.302;9.306;2022-07-03T15:13:04;32.40;55.20
8707;DHT22;4390;49.302;9.306;2022-07-03T15:15:32;32.40;56.10
8707;DHT22;4390;49.302;9.306;2022-07-03T15:18:00;32.40;55.70
8707;DHT22;4390;49.302;9.306;2022-07-03T15:20:31;32.30;56.40
8707;DHT22;4390;49.302;9.306;2022-07-03T15:23:01;32.20;55.90
8707;DHT22;4390;49.302;9.306;2022-07-03T15:25:30;32.30;56.20
8707;DHT22;4390;49.302;9.306;2022-07-03T15:27:57;32.30;56.20
8707;DHT22;4390;49.302;9.306;2022-07-03T15:30:26;32.30;56.40
8707;DHT22;4390;49.302;9.306;2022-07-03T15:32:54;32.20;56.30
8707;DHT22;4390;49.302;9.306;2022-07-03T15:35:23;32.20;56.30
8707;DHT22;4390;49.302;9.306;2022-07-03T15:38:06;32.20;56.90
8707;DHT22;4390;49.302;9.306;2022-07-03T15:40:45;32.10;57.20
8707;DHT22;4390;49.302;9.306;2022-07-03T15:51:40;31.90;57.10
8707;DHT22;4390;49.302;9.306;2022-07-03T15:54:12;31.80;56.80
8707;DHT22;4390;49.302;9.306;2022-07-03T15:56:42;31.80;57.00
8707;DHT22;4390;49.302;9.306;2022-07-03T15:59:13;31.90;56.80
8707;DHT22;4390;49.302;9.306;2022-07-03T16:02:02;31.80;56.20
8707;DHT22;4390;49.302;9.306;2022-07-03T16:07:12;31.60;56.50
8707;DHT22;4390;49.302;9.306;2022-07-03T16:09:40;31.50;56.60
8707;DHT22;4390;49.302;9.306;2022-07-03T16:12:09;31.50;56.60
8707;DHT22;4390;49.302;9.306;2022-07-03T16:14:49;31.50;56.60
8707;DHT22;4390;49.302;9.306;2022-07-03T16:17:18;31.50;56.90
8707;DHT22;4390;49.302;9.306;2022-07-03T16:19:47;31.40;56.70
8707;DHT22;4390;49.302;9.306;2022-07-03T16:22:15;31.30;56.70
8707;DHT22;4390;49.302;9.306;2022-07-03T16:24:43;31.30;56.90
8707;DHT22;4390;49.302;9.306;2022-07-03T16:27:14;31.20;57.10
8707;DHT22;4390;49.302;9.306;2022-07-03T16:29:42;31.20;57.20
8707;DHT22;4390;49.302;9.306;2022-07-03T16:32:16;31.20;57.60
8707;DHT22;4390;49.302;9.306;2022-07-03T16:35:05;31.20;57.40
8707;DHT22;4390;49.302;9.306;2022-07-03T16:37:51;31.20;57.50
8707;DHT22;4390;49.302;9.306;2022-07-03T16:40:19;31.10;58.00
8707;DHT22;4390;49.302;9.306;2022-07-03T16:42:48;30.70;58.20
8707;DHT22;4390;49.302;9.306;2022-07-03T16:45:16;30.60;58.70
8707;DHT22;4390;49.302;9.306;2022-07-03T16:47:47;30.80;58.70
8707;DHT22;4390;49.302;9.306;2022-07-03T16:50:17;30.90;58.80
8707;DHT22;4390;49.302;9.306;2022-07-03T16:52:50;30.80;58.10
8707;DHT22;4390;49.302;9.306;2022-07-03T16:55:19;30.80;58.10
8707;DHT22;4390;49.302;9.306;2022-07-03T16:57:51;30.80;58.50
8707;DHT22;4390;49.302;9.306;2022-07-03T17:00:24;30.80;57.80
8707;DHT22;4390;49.302;9.306;2022-07-03T17:02:52;30.80;58.40
8707;DHT22;4390;49.302;9.306;2022-07-03T17:05:22;30.80;58.00
8707;DHT22;4390;49.302;9.306;2022-07-03T17:07:51;30.80;57.50
8707;DHT22;4390;49.302;9.306;2022-07-03T17:10:20;30.70;57.10
8707;DHT22;4390;49.302;9.306;2022-07-03T17:12:49;30.70;57.10
8707;DHT22;4390;49.302;9.306;2022-07-03T17:15:18;30.60;57.10
8707;DHT22;4390;49.302;9.306;2022-07-03T17:17:49;30.60;57.40
8707;DHT22;4390;49.302;9.306;2022-07-03T17:20:22;30.60;58.30
8707;DHT22;4390;49.302;9.306;2022-07-03T17:22:54;30.60;57.80
8707;DHT22;4390;49.302;9.306;2022-07-03T17:25:25;30.50;58.20
8707;DHT22;4390;49.302;9.306;2022-07-03T17:27:58;30.50;58.60
8707;DHT22;4390;49.302;9.306;2022-07-03T17:33:06;30.40;57.80
8707;DHT22;4390;49.302;9.306;2022-07-03T17:35:36;30.30;58.80
8707;DHT22;4390;49.302;9.306;2022-07-03T17:38:13;30.20;58.00
8707;DHT22;4390;49.302;9.306;2022-07-03T17:41:01;30.10;58.60
8707;DHT22;4390;49.302;9.306;2022-07-03T17:43:29;30.00;59.30
8707;DHT22;4390;49.302;9.306;2022-07-03T17:45:57;29.80;59.70
8707;DHT22;4390;49.302;9.306;2022-07-03T17:48:25;29.70;59.30
8707;DHT22;4390;49.302;9.306;2022-07-03T17:50:54;29.60;60.00
8707;DHT22;4390;49.302;9.306;2022-07-03T17:53:22;29.50;60.50
8707;DHT22;4390;49.302;9.306;2022-07-03T17:55:54;29.20;61.60
8707;DHT22;4390;49.302;9.306;2022-07-03T17:58:24;29.10;61.70
8707;DHT22;4390;49.302;9.306;2022-07-03T18:00:51;28.80;62.20